Terminal Aerodrome Forecast
Issued by NWS Atlanta, GA

Current Version | Previous Version | Text Only | Print | Product List | Glossary On
Versions: 1 2 3 4 5 6 7 8 9 10 11 12 13 14 15 16 17 18 19
000
FTUS42 KFFC 300532
TAFMCN
TAF
KMCN 300532Z 3006/3106 18007KT P6SM SKC
     FM301000 21008KT P6SM SCT012 BKN040
     FM301400 23010KT P6SM SCT012 OVC025
     FM301500 24011KT P6SM VCSH OVC025
      TEMPO 3015/3019 4SM SHRA SCT008 BKN012
     FM302000 29010KT P6SM SCT035
     FM310000 30005KT P6SM SKC
     FM310500 34003KT P6SM SKC=

USA.gov is the U.S. government's official web portal to all federal, state and local government web resources and services.